sensor_id;sensor_type;location;lat;lon;timestamp;P1;durP1;ratioP1;P2;durP2;ratioP2
30181;SDS011;16990;49.056;9.240;2022-12-29T00:01:17;3.30;;;2.40;;
30181;SDS011;16990;49.056;9.240;2022-12-29T00:03:45;4.55;;;2.28;;
30181;SDS011;16990;49.056;9.240;2022-12-29T00:06:12;3.92;;;2.55;;
30181;SDS011;16990;49.056;9.240;2022-12-29T00:08:39;5.25;;;2.70;;
30181;SDS011;16990;49.056;9.240;2022-12-29T00:11:06;5.40;;;2.75;;
30181;SDS011;16990;49.056;9.240;2022-12-29T00:13:32;9.52;;;3.08;;
30181;SDS011;16990;49.056;9.240;2022-12-29T00:16:16;6.63;;;2.75;;
30181;SDS011;16990;49.056;9.240;2022-12-29T00:18:43;5.07;;;2.42;;
30181;SDS011;16990;49.056;9.240;2022-12-29T00:21:09;9.82;;;3.70;;
30181;SDS011;16990;49.056;9.240;2022-12-29T00:23:57;6.50;;;2.63;;
30181;SDS011;16990;49.056;9.240;2022-12-29T00:26:41;5.43;;;3.03;;
30181;SDS011;16990;49.056;9.240;2022-12-29T00:29:24;9.60;;;4.73;;
30181;SDS011;16990;49.056;9.240;2022-12-29T00:32:09;23.90;;;8.55;;
30181;SDS011;16990;49.056;9.240;2022-12-29T00:34:58;8.18;;;4.43;;
30181;SDS011;16990;49.056;9.240;2022-12-29T00:37:37;5.55;;;2.42;;
30181;SDS011;16990;49.056;9.240;2022-12-29T00:40:23;3.75;;;2.70;;
30181;SDS011;16990;49.056;9.240;2022-12-29T00:43:06;3.60;;;2.30;;
30181;SDS011;16990;49.056;9.240;2022-12-29T00:45:50;5.20;;;2.40;;
30181;SDS011;16990;49.056;9.240;2022-12-29T00:48:17;3.25;;;2.13;;
30181;SDS011;16990;49.056;9.240;2022-12-29T00:51:04;2.33;;;1.42;;
30181;SDS011;16990;49.056;9.240;2022-12-29T00:53:29;2.95;;;2.00;;
30181;SDS011;16990;49.056;9.240;2022-12-29T00:55:57;3.72;;;2.00;;
30181;SDS011;16990;49.056;9.240;2022-12-29T00:58:23;5.47;;;2.10;;
30181;SDS011;16990;49.056;9.240;2022-12-29T01:00:49;4.68;;;1.80;;
30181;SDS011;16990;49.056;9.240;2022-12-29T01:03:16;3.70;;;2.35;;
30181;SDS011;16990;49.056;9.240;2022-12-29T01:05:42;5.60;;;1.65;;
30181;SDS011;16990;49.056;9.240;2022-12-29T01:08:09;3.03;;;1.90;;
30181;SDS011;16990;49.056;9.240;2022-12-29T01:10:35;3.25;;;2.08;;
30181;SDS011;16990;49.056;9.240;2022-12-29T01:13:02;6.20;;;2.17;;
30181;SDS011;16990;49.056;9.240;2022-12-29T01:15:28;7.20;;;2.80;;
30181;SDS011;16990;49.056;9.240;2022-12-29T01:17:55;2.83;;;2.00;;
30181;SDS011;16990;49.056;9.240;2022-12-29T01:20:21;5.70;;;2.25;;
30181;SDS011;16990;49.056;9.240;2022-12-29T01:22:48;4.68;;;1.92;;
30181;SDS011;16990;49.056;9.240;2022-12-29T01:25:14;3.05;;;1.50;;
30181;SDS011;16990;49.056;9.240;2022-12-29T01:27:40;6.10;;;2.10;;
30181;SDS011;16990;49.056;9.240;2022-12-29T01:30:09;5.85;;;1.80;;
30181;SDS011;16990;49.056;9.240;2022-12-29T01:32:35;1.88;;;1.50;;
30181;SDS011;16990;49.056;9.240;2022-12-29T01:35:02;9.65;;;1.83;;
30181;SDS011;16990;49.056;9.240;2022-12-29T01:37:28;3.30;;;1.80;;
30181;SDS011;16990;49.056;9.240;2022-12-29T01:39:55;4.32;;;2.08;;
30181;SDS011;16990;49.056;9.240;2022-12-29T01:42:22;4.65;;;2.10;;
30181;SDS011;16990;49.056;9.240;2022-12-29T01:44:53;3.92;;;2.10;;
30181;SDS011;16990;49.056;9.240;2022-12-29T01:47:29;4.30;;;1.80;;
30181;SDS011;16990;49.056;9.240;2022-12-29T01:49:58;4.00;;;2.35;;
30181;SDS011;16990;49.056;9.240;2022-12-29T01:52:26;4.38;;;1.90;;
30181;SDS011;16990;49.056;9.240;2022-12-29T01:54:53;2.92;;;1.48;;
30181;SDS011;16990;49.056;9.240;2022-12-29T01:57:21;7.47;;;2.20;;
30181;SDS011;16990;49.056;9.240;2022-12-29T01:59:49;3.55;;;1.73;;
30181;SDS011;16990;49.056;9.240;2022-12-29T02:02:17;3.03;;;1.90;;
30181;SDS011;16990;49.056;9.240;2022-12-29T02:04:45;4.32;;;2.03;;
30181;SDS011;16990;49.056;9.240;2022-12-29T02:07:13;3.28;;;1.80;;
30181;SDS011;16990;49.056;9.240;2022-12-29T02:09:40;5.07;;;2.20;;
30181;SDS011;16990;49.056;9.240;2022-12-29T02:12:07;6.75;;;1.70;;
30181;SDS011;16990;49.056;9.240;2022-12-29T02:14:33;4.05;;;1.80;;
30181;SDS011;16990;49.056;9.240;2022-12-29T02:17:01;3.17;;;1.65;;
30181;SDS011;16990;49.056;9.240;2022-12-29T02:22:21;12.07;;;5.47;;
30181;SDS011;16990;49.056;9.240;2022-12-29T02:24:59;5.75;;;3.20;;
30181;SDS011;16990;49.056;9.240;2022-12-29T02:30:15;5.57;;;2.30;;
30181;SDS011;16990;49.056;9.240;2022-12-29T02:32:46;15.13;;;7.70;;
30181;SDS011;16990;49.056;9.240;2022-12-29T02:35:17;7.03;;;4.10;;
30181;SDS011;16990;49.056;9.240;2022-12-29T02:37:47;14.52;;;2.63;;
30181;SDS011;16990;49.056;9.240;2022-12-29T02:40:22;3.85;;;1.83;;
30181;SDS011;16990;49.056;9.240;2022-12-29T02:42:50;5.55;;;1.70;;
30181;SDS011;16990;49.056;9.240;2022-12-29T02:45:19;7.15;;;1.98;;
30181;SDS011;16990;49.056;9.240;2022-12-29T02:47:48;2.35;;;1.80;;
30181;SDS011;16990;49.056;9.240;2022-12-29T02:50:17;2.72;;;1.70;;
30181;SDS011;16990;49.056;9.240;2022-12-29T02:52:48;3.60;;;1.90;;
30181;SDS011;16990;49.056;9.240;2022-12-29T02:55:15;10.82;;;2.97;;
30181;SDS011;16990;49.056;9.240;2022-12-29T02:57:41;9.75;;;1.85;;
30181;SDS011;16990;49.056;9.240;2022-12-29T03:00:08;5.45;;;1.83;;
30181;SDS011;16990;49.056;9.240;2022-12-29T03:02:39;10.23;;;4.20;;
30181;SDS011;16990;49.056;9.240;2022-12-29T03:05:14;14.45;;;5.10;;
30181;SDS011;16990;49.056;9.240;2022-12-29T03:07:44;6.13;;;3.13;;
30181;SDS011;16990;49.056;9.240;2022-12-29T03:10:14;8.50;;;2.15;;
30181;SDS011;16990;49.056;9.240;2022-12-29T03:12:45;6.07;;;1.92;;
30181;SDS011;16990;49.056;9.240;2022-12-29T03:15:32;6.05;;;2.10;;
30181;SDS011;16990;49.056;9.240;2022-12-29T03:18:19;8.57;;;4.70;;
30181;SDS011;16990;49.056;9.240;2022-12-29T03:20:51;13.90;;;5.50;;
30181;SDS011;16990;49.056;9.240;2022-12-29T03:23:18;17.23;;;6.70;;
30181;SDS011;16990;49.056;9.240;2022-12-29T03:25:46;6.15;;;3.08;;
30181;SDS011;16990;49.056;9.240;2022-12-29T03:28:15;4.82;;;2.72;;
30181;SDS011;16990;49.056;9.240;2022-12-29T03:30:44;5.18;;;2.42;;
30181;SDS011;16990;49.056;9.240;2022-12-29T03:33:12;3.72;;;2.35;;
30181;SDS011;16990;49.056;9.240;2022-12-29T03:35:40;4.35;;;2.38;;
30181;SDS011;16990;49.056;9.240;2022-12-29T03:38:09;3.08;;;1.55;;
30181;SDS011;16990;49.056;9.240;2022-12-29T03:40:37;4.93;;;2.58;;
30181;SDS011;16990;49.056;9.240;2022-12-29T03:43:04;4.43;;;1.60;;
30181;SDS011;16990;49.056;9.240;2022-12-29T03:45:31;3.47;;;1.48;;
30181;SDS011;16990;49.056;9.240;2022-12-29T03:47:57;4.88;;;1.92;;
30181;SDS011;16990;49.056;9.240;2022-12-29T03:50:24;6.20;;;1.73;;
30181;SDS011;16990;49.056;9.240;2022-12-29T03:52:50;2.38;;;1.40;;
30181;SDS011;16990;49.056;9.240;2022-12-29T03:55:18;4.38;;;1.60;;
30181;SDS011;16990;49.056;9.240;2022-12-29T03:57:44;4.22;;;1.58;;
30181;SDS011;16990;49.056;9.240;2022-12-29T04:00:11;2.42;;;1.30;;
30181;SDS011;16990;49.056;9.240;2022-12-29T04:02:38;7.53;;;1.92;;
30181;SDS011;16990;49.056;9.240;2022-12-29T04:05:05;5.68;;;1.70;;
30181;SDS011;16990;49.056;9.240;2022-12-29T04:07:31;3.63;;;1.80;;
30181;SDS011;16990;49.056;9.240;2022-12-29T04:09:58;2.63;;;1.42;;
30181;SDS011;16990;49.056;9.240;2022-12-29T04:12:25;2.42;;;1.42;;
30181;SDS011;16990;49.056;9.240;2022-12-29T04:14:52;4.93;;;1.67;;
30181;SDS011;16990;49.056;9.240;2022-12-29T04:17:18;6.97;;;1.88;;
30181;SDS011;16990;49.056;9.240;2022-12-29T04:19:45;4.20;;;1.75;;
30181;SDS011;16990;49.056;9.240;2022-12-29T04:22:11;2.90;;;1.50;;
30181;SDS011;16990;49.056;9.240;2022-12-29T04:24:38;2.78;;;1.48;;
30181;SDS011;16990;49.056;9.240;2022-12-29T04:27:04;7.40;;;1.80;;
30181;SDS011;16990;49.056;9.240;2022-12-29T04:29:32;5.47;;;1.23;;
30181;SDS011;16990;49.056;9.240;2022-12-29T04:31:58;2.97;;;1.42;;
30181;SDS011;16990;49.056;9.240;2022-12-29T04:34:24;5.80;;;1.58;;
30181;SDS011;16990;49.056;9.240;2022-12-29T04:36:51;7.50;;;1.52;;
30181;SDS011;16990;49.056;9.240;2022-12-29T04:39:17;4.32;;;1.80;;
30181;SDS011;16990;49.056;9.240;2022-12-29T04:41:44;7.95;;;2.05;;
30181;SDS011;16990;49.056;9.240;2022-12-29T04:44:11;3.10;;;1.40;;
30181;SDS011;16990;49.056;9.240;2022-12-29T04:46:39;6.65;;;1.42;;
30181;SDS011;16990;49.056;9.240;2022-12-29T04:49:05;5.20;;;1.67;;
30181;SDS011;16990;49.056;9.240;2022-12-29T04:51:33;4.60;;;1.45;;
30181;SDS011;16990;49.056;9.240;2022-12-29T04:54:00;5.75;;;1.33;;
30181;SDS011;16990;49.056;9.240;2022-12-29T04:56:26;4.20;;;1.70;;
30181;SDS011;16990;49.056;9.240;2022-12-29T04:58:53;2.83;;;1.60;;
30181;SDS011;16990;49.056;9.240;2022-12-29T05:01:19;4.38;;;1.83;;
30181;SDS011;16990;49.056;9.240;2022-12-29T05:03:47;2.75;;;1.50;;
30181;SDS011;16990;49.056;9.240;2022-12-29T05:06:15;1.70;;;1.23;;
30181;SDS011;16990;49.056;9.240;2022-12-29T05:08:41;4.80;;;1.70;;
30181;SDS011;16990;49.056;9.240;2022-12-29T05:11:08;5.45;;;1.67;;
30181;SDS011;16990;49.056;9.240;2022-12-29T05:13:34;5.20;;;1.60;;
30181;SDS011;16990;49.056;9.240;2022-12-29T05:16:01;4.00;;;1.80;;
30181;SDS011;16990;49.056;9.240;2022-12-29T05:18:27;3.92;;;1.70;;
30181;SDS011;16990;49.056;9.240;2022-12-29T05:20:55;3.08;;;1.77;;
30181;SDS011;16990;49.056;9.240;2022-12-29T05:23:21;3.65;;;1.65;;
30181;SDS011;16990;49.056;9.240;2022-12-29T05:25:48;5.65;;;2.60;;
30181;SDS011;16990;49.056;9.240;2022-12-29T05:28:14;3.75;;;1.50;;
30181;SDS011;16990;49.056;9.240;2022-12-29T05:30:40;2.72;;;1.70;;
30181;SDS011;16990;49.056;9.240;2022-12-29T05:33:11;5.03;;;1.60;;
30181;SDS011;16990;49.056;9.240;2022-12-29T05:35:38;3.00;;;1.35;;
30181;SDS011;16990;49.056;9.240;2022-12-29T05:38:06;2.38;;;1.90;;
30181;SDS011;16990;49.056;9.240;2022-12-29T05:40:32;2.90;;;1.70;;
30181;SDS011;16990;49.056;9.240;2022-12-29T05:42:59;5.68;;;2.25;;
30181;SDS011;16990;49.056;9.240;2022-12-29T05:45:25;6.53;;;2.35;;
30181;SDS011;16990;49.056;9.240;2022-12-29T05:47:52;7.25;;;2.25;;
30181;SDS011;16990;49.056;9.240;2022-12-29T05:50:18;2.22;;;1.40;;
30181;SDS011;16990;49.056;9.240;2022-12-29T05:52:44;3.95;;;2.22;;
30181;SDS011;16990;49.056;9.240;2022-12-29T05:55:12;4.68;;;1.80;;
30181;SDS011;16990;49.056;9.240;2022-12-29T05:57:39;4.65;;;1.65;;
30181;SDS011;16990;49.056;9.240;2022-12-29T06:00:06;2.97;;;1.77;;
30181;SDS011;16990;49.056;9.240;2022-12-29T06:02:32;3.78;;;1.67;;
30181;SDS011;16990;49.056;9.240;2022-12-29T06:04:59;3.97;;;1.83;;
30181;SDS011;16990;49.056;9.240;2022-12-29T06:07:25;4.35;;;1.83;;
30181;SDS011;16990;49.056;9.240;2022-12-29T06:09:52;3.78;;;1.48;;
30181;SDS011;16990;49.056;9.240;2022-12-29T06:12:19;5.22;;;2.42;;
30181;SDS011;16990;49.056;9.240;2022-12-29T06:14:46;3.55;;;1.75;;
30181;SDS011;16990;49.056;9.240;2022-12-29T06:17:12;5.00;;;1.48;;
30181;SDS011;16990;49.056;9.240;2022-12-29T06:19:38;3.30;;;1.92;;
30181;SDS011;16990;49.056;9.240;2022-12-29T06:22:05;5.45;;;1.42;;
30181;SDS011;16990;49.056;9.240;2022-12-29T06:24:32;6.63;;;1.83;;
30181;SDS011;16990;49.056;9.240;2022-12-29T06:26:59;4.00;;;1.85;;
30181;SDS011;16990;49.056;9.240;2022-12-29T06:29:26;2.28;;;1.48;;
30181;SDS011;16990;49.056;9.240;2022-12-29T06:31:53;8.65;;;2.53;;
30181;SDS011;16990;49.056;9.240;2022-12-29T06:34:22;4.45;;;1.70;;
30181;SDS011;16990;49.056;9.240;2022-12-29T06:37:05;6.90;;;1.73;;
30181;SDS011;16990;49.056;9.240;2022-12-29T06:39:37;4.20;;;1.95;;
30181;SDS011;16990;49.056;9.240;2022-12-29T06:42:21;4.63;;;1.80;;
30181;SDS011;16990;49.056;9.240;2022-12-29T06:45:09;5.07;;;2.58;;
30181;SDS011;16990;49.056;9.240;2022-12-29T06:47:43;3.97;;;1.90;;
30181;SDS011;16990;49.056;9.240;2022-12-29T06:50:09;3.10;;;2.00;;
30181;SDS011;16990;49.056;9.240;2022-12-29T06:52:36;6.03;;;1.65;;
30181;SDS011;16990;49.056;9.240;2022-12-29T06:55:02;4.93;;;2.17;;
30181;SDS011;16990;49.056;9.240;2022-12-29T06:57:29;3.97;;;2.03;;
30181;SDS011;16990;49.056;9.240;2022-12-29T06:59:55;7.85;;;3.47;;
30181;SDS011;16990;49.056;9.240;2022-12-29T07:02:23;6.88;;;2.50;;
30181;SDS011;16990;49.056;9.240;2022-12-29T07:04:50;3.40;;;2.00;;
30181;SDS011;16990;49.056;9.240;2022-12-29T07:07:17;5.85;;;2.55;;
30181;SDS011;16990;49.056;9.240;2022-12-29T07:09:43;4.18;;;1.95;;
30181;SDS011;16990;49.056;9.240;2022-12-29T07:12:10;11.82;;;2.55;;
30181;SDS011;16990;49.056;9.240;2022-12-29T07:14:36;10.80;;;2.30;;
30181;SDS011;16990;49.056;9.240;2022-12-29T07:17:03;8.02;;;2.17;;
30181;SDS011;16990;49.056;9.240;2022-12-29T07:19:31;7.25;;;1.88;;
30181;SDS011;16990;49.056;9.240;2022-12-29T07:21:58;4.03;;;2.13;;
30181;SDS011;16990;49.056;9.240;2022-12-29T07:24:24;5.80;;;2.13;;
30181;SDS011;16990;49.056;9.240;2022-12-29T07:26:51;5.45;;;1.92;;
30181;SDS011;16990;49.056;9.240;2022-12-29T07:29:18;7.25;;;1.60;;
30181;SDS011;16990;49.056;9.240;2022-12-29T07:31:44;3.33;;;1.85;;
30181;SDS011;16990;49.056;9.240;2022-12-29T07:34:10;4.90;;;2.20;;
30181;SDS011;16990;49.056;9.240;2022-12-29T07:36:38;2.88;;;1.88;;
30181;SDS011;16990;49.056;9.240;2022-12-29T07:39:05;4.05;;;2.08;;
30181;SDS011;16990;49.056;9.240;2022-12-29T07:41:31;5.07;;;2.40;;
30181;SDS011;16990;49.056;9.240;2022-12-29T07:43:57;3.42;;;1.70;;
30181;SDS011;16990;49.056;9.240;2022-12-29T07:46:24;2.35;;;1.40;;
30181;SDS011;16990;49.056;9.240;2022-12-29T07:48:50;3.45;;;1.90;;
30181;SDS011;16990;49.056;9.240;2022-12-29T07:51:17;5.82;;;2.05;;
30181;SDS011;16990;49.056;9.240;2022-12-29T07:53:44;2.90;;;2.08;;
30181;SDS011;16990;49.056;9.240;2022-12-29T07:56:11;2.83;;;1.90;;
30181;SDS011;16990;49.056;9.240;2022-12-29T07:58:37;3.95;;;1.70;;
30181;SDS011;16990;49.056;9.240;2022-12-29T08:01:03;7.97;;;2.65;;
30181;SDS011;16990;49.056;9.240;2022-12-29T08:03:30;6.75;;;2.28;;
30181;SDS011;16990;49.056;9.240;2022-12-29T08:05:56;4.90;;;1.50;;
30181;SDS011;16990;49.056;9.240;2022-12-29T08:08:23;3.90;;;2.10;;
30181;SDS011;16990;49.056;9.240;2022-12-29T08:10:51;2.80;;;1.83;;
30181;SDS011;16990;49.056;9.240;2022-12-29T08:13:17;4.95;;;2.33;;
30181;SDS011;16990;49.056;9.240;2022-12-29T08:15:44;4.25;;;2.15;;
30181;SDS011;16990;49.056;9.240;2022-12-29T08:18:10;2.95;;;2.08;;
30181;SDS011;16990;49.056;9.240;2022-12-29T08:20:36;6.70;;;2.17;;
30181;SDS011;16990;49.056;9.240;2022-12-29T08:23:03;9.20;;;2.17;;
30181;SDS011;16990;49.056;9.240;2022-12-29T08:25:29;3.58;;;1.65;;
30181;SDS011;16990;49.056;9.240;2022-12-29T08:27:57;7.55;;;2.97;;
30181;SDS011;16990;49.056;9.240;2022-12-29T08:30:23;7.03;;;3.63;;
30181;SDS011;16990;49.056;9.240;2022-12-29T08:32:50;14.13;;;4.45;;
30181;SDS011;16990;49.056;9.240;2022-12-29T08:35:16;15.02;;;6.15;;
30181;SDS011;16990;49.056;9.240;2022-12-29T08:37:43;5.90;;;3.25;;
30181;SDS011;16990;49.056;9.240;2022-12-29T08:40:10;8.85;;;2.75;;
30181;SDS011;16990;49.056;9.240;2022-12-29T08:42:36;6.53;;;2.50;;
30181;SDS011;16990;49.056;9.240;2022-12-29T08:45:05;12.85;;;2.05;;
30181;SDS011;16990;49.056;9.240;2022-12-29T08:47:31;3.67;;;1.85;;
30181;SDS011;16990;49.056;9.240;2022-12-29T08:49:58;12.55;;;2.03;;
30181;SDS011;16990;49.056;9.240;2022-12-29T08:52:24;4.28;;;2.30;;
30181;SDS011;16990;49.056;9.240;2022-12-29T08:54:50;5.20;;;2.65;;
30181;SDS011;16990;49.056;9.240;2022-12-29T08:57:17;9.93;;;2.63;;
30181;SDS011;16990;49.056;9.240;2022-12-29T08:59:43;5.32;;;2.20;;
30181;SDS011;16990;49.056;9.240;2022-12-29T09:02:11;7.60;;;2.25;;
30181;SDS011;16990;49.056;9.240;2022-12-29T09:04:38;9.07;;;2.28;;
30181;SDS011;16990;49.056;9.240;2022-12-29T09:07:04;9.73;;;2.53;;
30181;SDS011;16990;49.056;9.240;2022-12-29T09:09:31;7.10;;;2.33;;
30181;SDS011;16990;49.056;9.240;2022-12-29T09:11:57;4.57;;;2.00;;
30181;SDS011;16990;49.056;9.240;2022-12-29T09:14:24;6.47;;;2.00;;
30181;SDS011;16990;49.056;9.240;2022-12-29T09:16:50;6.10;;;1.90;;
30181;SDS011;16990;49.056;9.240;2022-12-29T09:19:36;5.50;;;2.00;;
30181;SDS011;16990;49.056;9.240;2022-12-29T09:22:02;4.00;;;1.83;;
30181;SDS011;16990;49.056;9.240;2022-12-29T09:24:29;7.60;;;2.42;;
30181;SDS011;16990;49.056;9.240;2022-12-29T09:26:56;4.22;;;2.10;;
30181;SDS011;16990;49.056;9.240;2022-12-29T09:29:22;5.28;;;2.40;;
30181;SDS011;16990;49.056;9.240;2022-12-29T09:31:49;5.88;;;2.80;;
30181;SDS011;16990;49.056;9.240;2022-12-29T09:34:15;6.25;;;2.33;;
30181;SDS011;16990;49.056;9.240;2022-12-29T09:36:43;5.15;;;2.53;;
30181;SDS011;16990;49.056;9.240;2022-12-29T09:39:09;6.97;;;2.38;;
30181;SDS011;16990;49.056;9.240;2022-12-29T09:41:37;5.78;;;2.65;;
30181;SDS011;16990;49.056;9.240;2022-12-29T09:44:06;4.38;;;2.78;;
30181;SDS011;16990;49.056;9.240;2022-12-29T09:46:35;6.88;;;2.60;;
30181;SDS011;16990;49.056;9.240;2022-12-29T09:49:07;7.10;;;2.17;;
30181;SDS011;16990;49.056;9.240;2022-12-29T09:51:34;6.90;;;2.05;;
30181;SDS011;16990;49.056;9.240;2022-12-29T09:54:09;1.85;;;1.40;;
30181;SDS011;16990;49.056;9.240;2022-12-29T09:56:37;5.07;;;2.13;;
30181;SDS011;16990;49.056;9.240;2022-12-29T09:59:04;3.42;;;2.00;;
30181;SDS011;16990;49.056;9.240;2022-12-29T10:01:32;10.50;;;1.67;;
30181;SDS011;16990;49.056;9.240;2022-12-29T10:04:00;3.15;;;1.60;;
30181;SDS011;16990;49.056;9.240;2022-12-29T10:06:32;6.20;;;2.03;;
30181;SDS011;16990;49.056;9.240;2022-12-29T10:09:01;5.68;;;2.03;;
30181;SDS011;16990;49.056;9.240;2022-12-29T10:11:40;7.07;;;2.50;;
30181;SDS011;16990;49.056;9.240;2022-12-29T10:14:17;4.30;;;1.80;;
30181;SDS011;16990;49.056;9.240;2022-12-29T10:16:50;3.22;;;1.60;;
30181;SDS011;16990;49.056;9.240;2022-12-29T10:19:28;4.75;;;1.70;;
30181;SDS011;16990;49.056;9.240;2022-12-29T10:22:02;3.35;;;1.80;;
30181;SDS011;16990;49.056;9.240;2022-12-29T10:24:30;3.60;;;1.55;;
30181;SDS011;16990;49.056;9.240;2022-12-29T10:26:59;7.80;;;2.00;;
30181;SDS011;16990;49.056;9.240;2022-12-29T10:29:26;3.50;;;1.60;;
30181;SDS011;16990;49.056;9.240;2022-12-29T10:31:57;2.53;;;1.50;;
30181;SDS011;16990;49.056;9.240;2022-12-29T10:34:25;4.75;;;1.73;;
30181;SDS011;16990;49.056;9.240;2022-12-29T10:36:53;4.28;;;1.50;;
30181;SDS011;16990;49.056;9.240;2022-12-29T10:39:23;3.53;;;1.50;;
30181;SDS011;16990;49.056;9.240;2022-12-29T10:41:53;6.28;;;1.52;;
30181;SDS011;16990;49.056;9.240;2022-12-29T10:44:22;12.15;;;1.50;;
30181;SDS011;16990;49.056;9.240;2022-12-29T10:46:53;6.20;;;1.58;;
30181;SDS011;16990;49.056;9.240;2022-12-29T10:49:20;4.63;;;1.77;;
30181;SDS011;16990;49.056;9.240;2022-12-29T10:51:47;8.10;;;1.20;;
30181;SDS011;16990;49.056;9.240;2022-12-29T10:54:15;4.55;;;1.48;;
30181;SDS011;16990;49.056;9.240;2022-12-29T10:56:43;2.53;;;1.15;;
30181;SDS011;16990;49.056;9.240;2022-12-29T10:59:13;1.63;;;1.02;;
30181;SDS011;16990;49.056;9.240;2022-12-29T11:01:45;4.75;;;1.55;;
30181;SDS011;16990;49.056;9.240;2022-12-29T11:04:20;2.30;;;1.10;;
30181;SDS011;16990;49.056;9.240;2022-12-29T11:06:50;2.75;;;1.00;;
30181;SDS011;16990;49.056;9.240;2022-12-29T11:09:19;2.25;;;1.10;;
30181;SDS011;16990;49.056;9.240;2022-12-29T11:11:48;6.53;;;1.20;;
30181;SDS011;16990;49.056;9.240;2022-12-29T11:14:16;2.00;;;1.50;;
30181;SDS011;16990;49.056;9.240;2022-12-29T11:16:45;1.77;;;1.00;;
30181;SDS011;16990;49.056;9.240;2022-12-29T11:19:23;2.63;;;1.20;;
30181;SDS011;16990;49.056;9.240;2022-12-29T11:21:49;3.33;;;1.10;;
30181;SDS011;16990;49.056;9.240;2022-12-29T11:24:20;2.83;;;1.00;;
30181;SDS011;16990;49.056;9.240;2022-12-29T11:26:46;3.17;;;1.10;;
30181;SDS011;16990;49.056;9.240;2022-12-29T11:29:17;2.00;;;1.08;;
30181;SDS011;16990;49.056;9.240;2022-12-29T11:31:48;3.10;;;1.30;;
30181;SDS011;16990;49.056;9.240;2022-12-29T11:34:18;2.55;;;1.20;;
30181;SDS011;16990;49.056;9.240;2022-12-29T11:36:45;4.57;;;1.33;;
30181;SDS011;16990;49.056;9.240;2022-12-29T11:39:22;2.83;;;1.55;;
30181;SDS011;16990;49.056;9.240;2022-12-29T11:41:51;4.90;;;1.42;;
30181;SDS011;16990;49.056;9.240;2022-12-29T11:44:18;4.65;;;1.50;;
30181;SDS011;16990;49.056;9.240;2022-12-29T11:46:45;4.07;;;1.55;;
30181;SDS011;16990;49.056;9.240;2022-12-29T11:49:16;2.70;;;1.30;;
30181;SDS011;16990;49.056;9.240;2022-12-29T11:51:45;2.45;;;1.05;;
30181;SDS011;16990;49.056;9.240;2022-12-29T11:54:13;2.95;;;1.40;;
30181;SDS011;16990;49.056;9.240;2022-12-29T11:56:42;1.80;;;1.15;;
30181;SDS011;16990;49.056;9.240;2022-12-29T11:59:34;2.08;;;1.30;;
30181;SDS011;16990;49.056;9.240;2022-12-29T12:02:07;5.90;;;1.00;;
30181;SDS011;16990;49.056;9.240;2022-12-29T12:04:36;1.10;;;1.00;;
30181;SDS011;16990;49.056;9.240;2022-12-29T12:07:04;4.63;;;1.70;;
30181;SDS011;16990;49.056;9.240;2022-12-29T12:09:35;2.83;;;1.15;;
30181;SDS011;16990;49.056;9.240;2022-12-29T12:12:03;4.18;;;1.27;;
30181;SDS011;16990;49.056;9.240;2022-12-29T12:14:30;4.05;;;1.50;;
30181;SDS011;16990;49.056;9.240;2022-12-29T12:16:59;4.57;;;1.30;;
30181;SDS011;16990;49.056;9.240;2022-12-29T12:19:32;3.85;;;1.27;;
30181;SDS011;16990;49.056;9.240;2022-12-29T12:22:03;4.97;;;1.90;;
30181;SDS011;16990;49.056;9.240;2022-12-29T12:24:36;2.25;;;1.25;;
30181;SDS011;16990;49.056;9.240;2022-12-29T12:27:08;3.40;;;1.38;;
30181;SDS011;16990;49.056;9.240;2022-12-29T12:29:36;3.90;;;1.58;;
30181;SDS011;16990;49.056;9.240;2022-12-29T12:32:05;2.85;;;1.35;;
30181;SDS011;16990;49.056;9.240;2022-12-29T12:34:35;3.47;;;1.00;;
30181;SDS011;16990;49.056;9.240;2022-12-29T12:37:21;3.05;;;1.33;;
30181;SDS011;16990;49.056;9.240;2022-12-29T12:39:56;3.53;;;1.00;;
30181;SDS011;16990;49.056;9.240;2022-12-29T12:42:32;3.72;;;1.27;;
30181;SDS011;16990;49.056;9.240;2022-12-29T12:45:07;5.07;;;1.50;;
30181;SDS011;16990;49.056;9.240;2022-12-29T12:47:43;1.13;;;1.00;;
30181;SDS011;16990;49.056;9.240;2022-12-29T12:50:18;2.70;;;1.15;;
30181;SDS011;16990;49.056;9.240;2022-12-29T12:52:57;10.85;;;0.80;;
30181;SDS011;16990;49.056;9.240;2022-12-29T12:55:30;2.65;;;1.00;;
30181;SDS011;16990;49.056;9.240;2022-12-29T12:58:01;2.88;;;0.80;;
30181;SDS011;16990;49.056;9.240;2022-12-29T13:00:31;3.10;;;0.90;;
30181;SDS011;16990;49.056;9.240;2022-12-29T13:03:04;4.22;;;0.90;;
30181;SDS011;16990;49.056;9.240;2022-12-29T13:08:22;4.25;;;1.38;;
30181;SDS011;16990;49.056;9.240;2022-12-29T13:10:50;1.10;;;0.90;;
30181;SDS011;16990;49.056;9.240;2022-12-29T13:13:28;5.00;;;1.10;;
30181;SDS011;16990;49.056;9.240;2022-12-29T13:15:57;2.17;;;1.35;;
30181;SDS011;16990;49.056;9.240;2022-12-29T13:18:27;1.08;;;0.88;;
30181;SDS011;16990;49.056;9.240;2022-12-29T13:21:02;6.55;;;1.00;;
30181;SDS011;16990;49.056;9.240;2022-12-29T13:23:41;1.45;;;1.00;;
30181;SDS011;16990;49.056;9.240;2022-12-29T13:26:11;2.20;;;1.40;;
30181;SDS011;16990;49.056;9.240;2022-12-29T13:28:42;1.90;;;1.17;;
30181;SDS011;16990;49.056;9.240;2022-12-29T13:31:12;3.45;;;1.00;;
30181;SDS011;16990;49.056;9.240;2022-12-29T13:33:42;4.15;;;1.30;;
30181;SDS011;16990;49.056;9.240;2022-12-29T13:36:13;5.97;;;1.27;;
30181;SDS011;16990;49.056;9.240;2022-12-29T13:38:46;4.85;;;0.90;;
30181;SDS011;16990;49.056;9.240;2022-12-29T13:41:16;6.70;;;1.27;;
30181;SDS011;16990;49.056;9.240;2022-12-29T13:43:45;8.20;;;1.35;;
30181;SDS011;16990;49.056;9.240;2022-12-29T13:46:13;2.75;;;1.10;;
30181;SDS011;16990;49.056;9.240;2022-12-29T13:48:43;3.85;;;1.15;;
30181;SDS011;16990;49.056;9.240;2022-12-29T13:51:11;2.10;;;1.10;;
30181;SDS011;16990;49.056;9.240;2022-12-29T13:53:41;3.00;;;1.13;;
30181;SDS011;16990;49.056;9.240;2022-12-29T13:56:12;6.10;;;1.50;;
30181;SDS011;16990;49.056;9.240;2022-12-29T13:58:44;1.92;;;1.05;;
30181;SDS011;16990;49.056;9.240;2022-12-29T14:01:12;1.88;;;1.25;;
30181;SDS011;16990;49.056;9.240;2022-12-29T14:03:45;1.98;;;1.23;;
30181;SDS011;16990;49.056;9.240;2022-12-29T14:06:22;3.17;;;1.17;;
30181;SDS011;16990;49.056;9.240;2022-12-29T14:08:50;3.03;;;1.33;;
30181;SDS011;16990;49.056;9.240;2022-12-29T14:11:20;2.13;;;1.60;;
30181;SDS011;16990;49.056;9.240;2022-12-29T14:13:47;5.72;;;1.40;;
30181;SDS011;16990;49.056;9.240;2022-12-29T14:16:24;3.17;;;1.38;;
30181;SDS011;16990;49.056;9.240;2022-12-29T14:18:51;2.45;;;1.30;;
30181;SDS011;16990;49.056;9.240;2022-12-29T14:21:20;3.00;;;1.35;;
30181;SDS011;16990;49.056;9.240;2022-12-29T14:23:48;5.28;;;1.40;;
30181;SDS011;16990;49.056;9.240;2022-12-29T14:26:16;5.93;;;1.92;;
30181;SDS011;16990;49.056;9.240;2022-12-29T14:28:45;9.88;;;2.83;;
30181;SDS011;16990;49.056;9.240;2022-12-29T14:36:52;3.38;;;1.55;;
30181;SDS011;16990;49.056;9.240;2022-12-29T14:39:30;1.85;;;1.55;;
30181;SDS011;16990;49.056;9.240;2022-12-29T14:41:59;1.80;;;1.30;;
30181;SDS011;16990;49.056;9.240;2022-12-29T14:44:27;1.27;;;1.02;;
30181;SDS011;16990;49.056;9.240;2022-12-29T14:46:57;1.80;;;1.17;;
30181;SDS011;16990;49.056;9.240;2022-12-29T14:49:25;3.40;;;1.73;;
30181;SDS011;16990;49.056;9.240;2022-12-29T14:51:53;2.95;;;1.50;;
30181;SDS011;16990;49.056;9.240;2022-12-29T14:57:07;2.08;;;1.00;;
30181;SDS011;16990;49.056;9.240;2022-12-29T14:59:35;1.73;;;1.30;;
30181;SDS011;16990;49.056;9.240;2022-12-29T15:02:03;2.53;;;1.00;;
30181;SDS011;16990;49.056;9.240;2022-12-29T15:04:30;1.83;;;1.00;;
30181;SDS011;16990;49.056;9.240;2022-12-29T15:06:57;1.77;;;1.10;;
30181;SDS011;16990;49.056;9.240;2022-12-29T15:09:27;1.05;;;0.98;;
30181;SDS011;16990;49.056;9.240;2022-12-29T15:11:57;2.80;;;1.30;;
30181;SDS011;16990;49.056;9.240;2022-12-29T15:14:27;0.77;;;0.77;;
30181;SDS011;16990;49.056;9.240;2022-12-29T15:16:56;4.18;;;1.23;;